Levadhia, Greece
Current Conditions -  °F | °C
As of 10:50 PM on Sunday 23 Nov 2014 (Local Time) from LGTG Reporting Station
Broken Clouds Broken Clouds  
Wind Chill: 50°   Ceiling: 3000
Heat Index: 50°   Visibility: 6mi
Dew Point: 43°   Wind: 0mph
Humidity: 76%   Direction: NA
Pressure: 30.27"   Gusts: NA
Location:  38.44°N, 22.87°E
Report Text: LGTG 232050Z 00000KT 9999 FEW020 BKN030 10/06 Q1025 BLU
Loading
Personal Weather Stations






























Interactive Weather Map New forecast layout! Learn more

10-Day Weather Forecast

Advertisements
Track Severe Weather on mobile